sensor_id;sensor_type;location;lat;lon;timestamp;P1;durP1;ratioP1;P2;durP2;ratioP2
11960;SDS011;6040;49.358;11.140;2024-01-30T00:01:24;10.18;;;7.25;;
11960;SDS011;6040;49.358;11.140;2024-01-30T00:03:51;10.15;;;7.55;;
11960;SDS011;6040;49.358;11.140;2024-01-30T00:06:19;10.05;;;7.47;;
11960;SDS011;6040;49.358;11.140;2024-01-30T00:08:47;9.50;;;7.40;;
11960;SDS011;6040;49.358;11.140;2024-01-30T00:11:15;9.70;;;7.47;;
11960;SDS011;6040;49.358;11.140;2024-01-30T00:13:42;10.43;;;7.67;;
11960;SDS011;6040;49.358;11.140;2024-01-30T00:16:19;10.20;;;7.72;;
11960;SDS011;6040;49.358;11.140;2024-01-30T00:18:46;13.30;;;7.97;;
11960;SDS011;6040;49.358;11.140;2024-01-30T00:21:14;10.57;;;7.72;;
11960;SDS011;6040;49.358;11.140;2024-01-30T00:23:42;10.27;;;7.57;;
11960;SDS011;6040;49.358;11.140;2024-01-30T00:26:09;9.35;;;6.90;;
11960;SDS011;6040;49.358;11.140;2024-01-30T00:28:36;10.25;;;7.40;;
11960;SDS011;6040;49.358;11.140;2024-01-30T00:31:03;11.88;;;7.45;;
11960;SDS011;6040;49.358;11.140;2024-01-30T00:33:30;11.02;;;7.63;;
11960;SDS011;6040;49.358;11.140;2024-01-30T00:35:57;11.57;;;7.78;;
11960;SDS011;6040;49.358;11.140;2024-01-30T00:38:24;9.90;;;7.60;;
11960;SDS011;6040;49.358;11.140;2024-01-30T00:40:52;12.10;;;7.53;;
11960;SDS011;6040;49.358;11.140;2024-01-30T00:43:19;8.95;;;7.13;;
11960;SDS011;6040;49.358;11.140;2024-01-30T00:45:46;11.70;;;7.72;;
11960;SDS011;6040;49.358;11.140;2024-01-30T00:48:13;11.15;;;7.15;;
11960;SDS011;6040;49.358;11.140;2024-01-30T00:50:39;10.07;;;7.53;;
11960;SDS011;6040;49.358;11.140;2024-01-30T00:53:06;10.60;;;7.50;;
11960;SDS011;6040;49.358;11.140;2024-01-30T00:55:33;8.93;;;7.50;;
11960;SDS011;6040;49.358;11.140;2024-01-30T00:58:01;11.60;;;7.90;;
11960;SDS011;6040;49.358;11.140;2024-01-30T01:00:29;9.55;;;7.20;;
11960;SDS011;6040;49.358;11.140;2024-01-30T01:02:57;9.32;;;7.40;;
11960;SDS011;6040;49.358;11.140;2024-01-30T01:05:23;8.98;;;6.88;;
11960;SDS011;6040;49.358;11.140;2024-01-30T01:07:50;9.35;;;7.10;;
11960;SDS011;6040;49.358;11.140;2024-01-30T01:10:17;10.43;;;7.00;;
11960;SDS011;6040;49.358;11.140;2024-01-30T01:12:44;9.40;;;6.63;;
11960;SDS011;6040;49.358;11.140;2024-01-30T01:15:12;9.10;;;6.90;;
11960;SDS011;6040;49.358;11.140;2024-01-30T01:17:39;8.48;;;6.43;;
11960;SDS011;6040;49.358;11.140;2024-01-30T01:20:07;8.15;;;6.40;;
11960;SDS011;6040;49.358;11.140;2024-01-30T01:22:35;8.40;;;6.50;;
11960;SDS011;6040;49.358;11.140;2024-01-30T01:25:04;8.60;;;6.50;;
11960;SDS011;6040;49.358;11.140;2024-01-30T01:27:32;8.15;;;6.10;;
11960;SDS011;6040;49.358;11.140;2024-01-30T01:29:59;8.88;;;6.32;;
11960;SDS011;6040;49.358;11.140;2024-01-30T01:32:27;9.02;;;6.15;;
11960;SDS011;6040;49.358;11.140;2024-01-30T01:34:54;7.65;;;6.40;;
11960;SDS011;6040;49.358;11.140;2024-01-30T01:37:21;9.07;;;6.10;;
11960;SDS011;6040;49.358;11.140;2024-01-30T01:39:51;8.47;;;6.40;;
11960;SDS011;6040;49.358;11.140;2024-01-30T01:42:18;8.90;;;6.55;;
11960;SDS011;6040;49.358;11.140;2024-01-30T01:44:45;8.82;;;6.43;;
11960;SDS011;6040;49.358;11.140;2024-01-30T01:47:12;9.52;;;6.38;;
11960;SDS011;6040;49.358;11.140;2024-01-30T01:49:40;8.75;;;6.00;;
11960;SDS011;6040;49.358;11.140;2024-01-30T01:52:07;7.40;;;5.93;;
11960;SDS011;6040;49.358;11.140;2024-01-30T01:54:34;8.50;;;6.07;;
11960;SDS011;6040;49.358;11.140;2024-01-30T01:57:01;7.97;;;6.30;;
11960;SDS011;6040;49.358;11.140;2024-01-30T01:59:29;11.05;;;6.45;;
11960;SDS011;6040;49.358;11.140;2024-01-30T02:01:56;9.35;;;6.53;;
11960;SDS011;6040;49.358;11.140;2024-01-30T02:04:23;9.30;;;6.88;;
11960;SDS011;6040;49.358;11.140;2024-01-30T02:06:51;10.52;;;7.10;;
11960;SDS011;6040;49.358;11.140;2024-01-30T02:09:18;9.45;;;6.50;;
11960;SDS011;6040;49.358;11.140;2024-01-30T02:11:45;9.48;;;7.00;;
11960;SDS011;6040;49.358;11.140;2024-01-30T02:14:12;8.18;;;6.50;;
11960;SDS011;6040;49.358;11.140;2024-01-30T02:16:39;8.73;;;6.22;;
11960;SDS011;6040;49.358;11.140;2024-01-30T02:19:05;8.07;;;6.40;;
11960;SDS011;6040;49.358;11.140;2024-01-30T02:21:34;8.70;;;6.30;;
11960;SDS011;6040;49.358;11.140;2024-01-30T02:24:01;7.97;;;5.70;;
11960;SDS011;6040;49.358;11.140;2024-01-30T02:26:29;11.90;;;6.07;;
11960;SDS011;6040;49.358;11.140;2024-01-30T02:28:56;8.05;;;5.50;;
11960;SDS011;6040;49.358;11.140;2024-01-30T02:31:24;8.85;;;5.95;;
11960;SDS011;6040;49.358;11.140;2024-01-30T02:33:51;9.77;;;5.90;;
11960;SDS011;6040;49.358;11.140;2024-01-30T02:36:18;10.35;;;6.10;;
11960;SDS011;6040;49.358;11.140;2024-01-30T02:38:46;7.17;;;5.60;;
11960;SDS011;6040;49.358;11.140;2024-01-30T02:41:13;6.75;;;5.60;;
11960;SDS011;6040;49.358;11.140;2024-01-30T02:43:40;8.00;;;5.13;;
11960;SDS011;6040;49.358;11.140;2024-01-30T02:46:07;6.97;;;5.22;;
11960;SDS011;6040;49.358;11.140;2024-01-30T02:48:33;6.45;;;5.30;;
11960;SDS011;6040;49.358;11.140;2024-01-30T02:51:00;8.63;;;6.30;;
11960;SDS011;6040;49.358;11.140;2024-01-30T02:53:27;8.05;;;5.45;;
11960;SDS011;6040;49.358;11.140;2024-01-30T02:55:55;8.10;;;5.50;;
11960;SDS011;6040;49.358;11.140;2024-01-30T02:58:22;8.93;;;5.60;;
11960;SDS011;6040;49.358;11.140;2024-01-30T03:00:49;7.30;;;5.25;;
11960;SDS011;6040;49.358;11.140;2024-01-30T03:03:15;9.27;;;5.80;;
11960;SDS011;6040;49.358;11.140;2024-01-30T03:05:42;8.93;;;5.78;;
11960;SDS011;6040;49.358;11.140;2024-01-30T03:08:09;6.68;;;5.05;;
11960;SDS011;6040;49.358;11.140;2024-01-30T03:10:36;8.27;;;5.80;;
11960;SDS011;6040;49.358;11.140;2024-01-30T03:13:04;7.07;;;6.07;;
11960;SDS011;6040;49.358;11.140;2024-01-30T03:15:31;9.50;;;5.68;;
11960;SDS011;6040;49.358;11.140;2024-01-30T03:17:58;8.02;;;5.88;;
11960;SDS011;6040;49.358;11.140;2024-01-30T03:20:24;8.43;;;5.43;;
11960;SDS011;6040;49.358;11.140;2024-01-30T03:22:51;6.90;;;5.30;;
11960;SDS011;6040;49.358;11.140;2024-01-30T03:25:18;7.35;;;5.65;;
11960;SDS011;6040;49.358;11.140;2024-01-30T03:27:45;7.90;;;5.28;;
11960;SDS011;6040;49.358;11.140;2024-01-30T03:30:13;7.32;;;5.38;;
11960;SDS011;6040;49.358;11.140;2024-01-30T03:32:40;9.70;;;5.80;;
11960;SDS011;6040;49.358;11.140;2024-01-30T03:35:07;7.47;;;5.20;;
11960;SDS011;6040;49.358;11.140;2024-01-30T03:37:34;8.05;;;5.60;;
11960;SDS011;6040;49.358;11.140;2024-01-30T03:40:01;7.73;;;5.80;;
11960;SDS011;6040;49.358;11.140;2024-01-30T03:42:29;6.23;;;5.17;;
11960;SDS011;6040;49.358;11.140;2024-01-30T03:44:56;6.80;;;5.43;;
11960;SDS011;6040;49.358;11.140;2024-01-30T03:47:24;8.10;;;5.67;;
11960;SDS011;6040;49.358;11.140;2024-01-30T03:49:51;8.60;;;5.88;;
11960;SDS011;6040;49.358;11.140;2024-01-30T03:52:17;7.53;;;5.50;;
11960;SDS011;6040;49.358;11.140;2024-01-30T03:54:44;8.93;;;5.50;;
11960;SDS011;6040;49.358;11.140;2024-01-30T03:57:11;7.65;;;5.70;;
11960;SDS011;6040;49.358;11.140;2024-01-30T03:59:38;9.02;;;5.75;;
11960;SDS011;6040;49.358;11.140;2024-01-30T04:02:08;7.40;;;6.10;;
11960;SDS011;6040;49.358;11.140;2024-01-30T04:04:37;8.30;;;6.25;;
11960;SDS011;6040;49.358;11.140;2024-01-30T04:07:04;9.00;;;6.13;;
11960;SDS011;6040;49.358;11.140;2024-01-30T04:09:30;10.02;;;6.28;;
11960;SDS011;6040;49.358;11.140;2024-01-30T04:11:57;8.57;;;6.00;;
11960;SDS011;6040;49.358;11.140;2024-01-30T04:14:24;8.95;;;6.20;;
11960;SDS011;6040;49.358;11.140;2024-01-30T04:16:51;8.27;;;6.20;;
11960;SDS011;6040;49.358;11.140;2024-01-30T04:19:18;9.18;;;6.63;;
11960;SDS011;6040;49.358;11.140;2024-01-30T04:21:46;7.03;;;6.10;;
11960;SDS011;6040;49.358;11.140;2024-01-30T04:24:13;10.35;;;6.22;;
11960;SDS011;6040;49.358;11.140;2024-01-30T04:26:42;7.82;;;6.22;;
11960;SDS011;6040;49.358;11.140;2024-01-30T04:29:09;8.35;;;6.30;;
11960;SDS011;6040;49.358;11.140;2024-01-30T04:31:35;9.32;;;6.47;;
11960;SDS011;6040;49.358;11.140;2024-01-30T04:34:02;9.13;;;6.32;;
11960;SDS011;6040;49.358;11.140;2024-01-30T04:36:29;8.55;;;6.10;;
11960;SDS011;6040;49.358;11.140;2024-01-30T04:38:57;9.63;;;6.68;;
11960;SDS011;6040;49.358;11.140;2024-01-30T04:41:24;9.48;;;6.25;;
11960;SDS011;6040;49.358;11.140;2024-01-30T04:43:51;8.15;;;5.85;;
11960;SDS011;6040;49.358;11.140;2024-01-30T04:46:18;7.60;;;6.30;;
11960;SDS011;6040;49.358;11.140;2024-01-30T04:48:44;7.63;;;6.15;;
11960;SDS011;6040;49.358;11.140;2024-01-30T04:51:11;9.38;;;6.85;;
11960;SDS011;6040;49.358;11.140;2024-01-30T04:53:38;9.32;;;6.38;;
11960;SDS011;6040;49.358;11.140;2024-01-30T04:56:06;8.23;;;6.30;;
11960;SDS011;6040;49.358;11.140;2024-01-30T04:58:33;7.78;;;6.25;;
11960;SDS011;6040;49.358;11.140;2024-01-30T05:01:00;8.70;;;6.35;;
11960;SDS011;6040;49.358;11.140;2024-01-30T05:03:27;8.27;;;6.32;;
11960;SDS011;6040;49.358;11.140;2024-01-30T05:05:54;7.85;;;6.70;;
11960;SDS011;6040;49.358;11.140;2024-01-30T05:08:21;8.30;;;6.68;;
11960;SDS011;6040;49.358;11.140;2024-01-30T05:10:48;7.75;;;6.00;;
11960;SDS011;6040;49.358;11.140;2024-01-30T05:13:16;11.77;;;6.47;;
11960;SDS011;6040;49.358;11.140;2024-01-30T05:15:43;7.07;;;5.80;;
11960;SDS011;6040;49.358;11.140;2024-01-30T05:18:10;8.05;;;6.20;;
11960;SDS011;6040;49.358;11.140;2024-01-30T05:20:36;8.85;;;6.10;;
11960;SDS011;6040;49.358;11.140;2024-01-30T05:23:03;8.85;;;6.35;;
11960;SDS011;6040;49.358;11.140;2024-01-30T05:25:30;7.10;;;5.80;;
11960;SDS011;6040;49.358;11.140;2024-01-30T05:27:57;9.48;;;6.47;;
11960;SDS011;6040;49.358;11.140;2024-01-30T05:30:25;8.18;;;6.07;;
11960;SDS011;6040;49.358;11.140;2024-01-30T05:32:52;6.93;;;5.75;;
11960;SDS011;6040;49.358;11.140;2024-01-30T05:35:19;8.52;;;6.18;;
11960;SDS011;6040;49.358;11.140;2024-01-30T05:37:47;8.55;;;6.35;;
11960;SDS011;6040;49.358;11.140;2024-01-30T05:40:15;8.65;;;6.40;;
11960;SDS011;6040;49.358;11.140;2024-01-30T05:42:42;9.85;;;7.00;;
11960;SDS011;6040;49.358;11.140;2024-01-30T05:45:09;9.35;;;6.70;;
11960;SDS011;6040;49.358;11.140;2024-01-30T05:47:37;8.20;;;6.88;;
11960;SDS011;6040;49.358;11.140;2024-01-30T05:50:06;9.80;;;6.97;;
11960;SDS011;6040;49.358;11.140;2024-01-30T05:52:33;10.97;;;7.53;;
11960;SDS011;6040;49.358;11.140;2024-01-30T05:55:00;9.40;;;7.47;;
11960;SDS011;6040;49.358;11.140;2024-01-30T05:57:27;9.70;;;7.18;;
11960;SDS011;6040;49.358;11.140;2024-01-30T05:59:54;9.82;;;6.60;;
11960;SDS011;6040;49.358;11.140;2024-01-30T06:02:21;8.55;;;6.75;;
11960;SDS011;6040;49.358;11.140;2024-01-30T06:04:49;8.43;;;6.17;;
11960;SDS011;6040;49.358;11.140;2024-01-30T06:07:16;9.05;;;6.03;;
11960;SDS011;6040;49.358;11.140;2024-01-30T06:09:42;8.73;;;6.55;;
11960;SDS011;6040;49.358;11.140;2024-01-30T06:12:10;8.60;;;6.50;;
11960;SDS011;6040;49.358;11.140;2024-01-30T06:14:37;8.33;;;6.40;;
11960;SDS011;6040;49.358;11.140;2024-01-30T06:17:04;9.80;;;8.00;;
11960;SDS011;6040;49.358;11.140;2024-01-30T06:19:31;11.20;;;8.20;;
11960;SDS011;6040;49.358;11.140;2024-01-30T06:21:59;11.57;;;9.00;;
11960;SDS011;6040;49.358;11.140;2024-01-30T06:24:29;11.00;;;9.43;;
11960;SDS011;6040;49.358;11.140;2024-01-30T06:26:56;15.38;;;10.77;;
11960;SDS011;6040;49.358;11.140;2024-01-30T06:29:22;13.20;;;10.15;;
11960;SDS011;6040;49.358;11.140;2024-01-30T06:31:51;11.80;;;9.35;;
11960;SDS011;6040;49.358;11.140;2024-01-30T06:34:18;15.55;;;11.55;;
11960;SDS011;6040;49.358;11.140;2024-01-30T06:36:45;14.98;;;10.55;;
11960;SDS011;6040;49.358;11.140;2024-01-30T06:39:13;15.32;;;11.38;;
11960;SDS011;6040;49.358;11.140;2024-01-30T06:41:40;14.93;;;11.80;;
11960;SDS011;6040;49.358;11.140;2024-01-30T06:44:07;14.95;;;11.73;;
11960;SDS011;6040;49.358;11.140;2024-01-30T06:46:35;13.15;;;10.07;;
11960;SDS011;6040;49.358;11.140;2024-01-30T06:49:02;16.40;;;11.20;;
11960;SDS011;6040;49.358;11.140;2024-01-30T06:51:29;12.05;;;10.10;;
11960;SDS011;6040;49.358;11.140;2024-01-30T06:53:55;13.13;;;10.50;;
11960;SDS011;6040;49.358;11.140;2024-01-30T06:56:24;13.90;;;11.40;;
11960;SDS011;6040;49.358;11.140;2024-01-30T06:58:50;14.63;;;11.68;;
11960;SDS011;6040;49.358;11.140;2024-01-30T07:01:17;15.30;;;12.60;;
11960;SDS011;6040;49.358;11.140;2024-01-30T07:03:44;17.80;;;13.38;;
11960;SDS011;6040;49.358;11.140;2024-01-30T07:06:11;16.13;;;12.50;;
11960;SDS011;6040;49.358;11.140;2024-01-30T07:08:38;18.15;;;13.27;;
11960;SDS011;6040;49.358;11.140;2024-01-30T07:11:05;15.63;;;12.70;;
11960;SDS011;6040;49.358;11.140;2024-01-30T07:13:33;17.60;;;13.30;;
11960;SDS011;6040;49.358;11.140;2024-01-30T07:16:00;16.77;;;13.30;;
11960;SDS011;6040;49.358;11.140;2024-01-30T07:18:27;17.38;;;13.57;;
11960;SDS011;6040;49.358;11.140;2024-01-30T07:20:54;18.40;;;13.57;;
11960;SDS011;6040;49.358;11.140;2024-01-30T07:23:21;20.45;;;13.63;;
11960;SDS011;6040;49.358;11.140;2024-01-30T07:25:48;16.75;;;13.77;;
11960;SDS011;6040;49.358;11.140;2024-01-30T07:28:14;19.25;;;13.77;;
11960;SDS011;6040;49.358;11.140;2024-01-30T07:30:44;16.85;;;13.30;;
11960;SDS011;6040;49.358;11.140;2024-01-30T07:33:11;16.10;;;13.45;;
11960;SDS011;6040;49.358;11.140;2024-01-30T07:35:37;17.75;;;13.95;;
11960;SDS011;6040;49.358;11.140;2024-01-30T07:38:04;17.70;;;13.23;;
11960;SDS011;6040;49.358;11.140;2024-01-30T07:40:31;16.52;;;13.82;;
11960;SDS011;6040;49.358;11.140;2024-01-30T07:42:58;17.25;;;13.75;;
11960;SDS011;6040;49.358;11.140;2024-01-30T07:45:25;20.00;;;14.00;;
11960;SDS011;6040;49.358;11.140;2024-01-30T07:47:58;17.95;;;13.55;;
11960;SDS011;6040;49.358;11.140;2024-01-30T07:50:26;17.25;;;13.38;;
11960;SDS011;6040;49.358;11.140;2024-01-30T07:52:52;16.77;;;12.68;;
11960;SDS011;6040;49.358;11.140;2024-01-30T07:55:20;15.38;;;12.05;;
11960;SDS011;6040;49.358;11.140;2024-01-30T07:57:49;16.40;;;11.63;;
11960;SDS011;6040;49.358;11.140;2024-01-30T08:00:18;14.50;;;11.20;;
11960;SDS011;6040;49.358;11.140;2024-01-30T08:02:45;15.43;;;11.48;;
11960;SDS011;6040;49.358;11.140;2024-01-30T08:05:20;14.23;;;11.23;;
11960;SDS011;6040;49.358;11.140;2024-01-30T08:07:48;16.35;;;12.02;;
11960;SDS011;6040;49.358;11.140;2024-01-30T08:10:15;16.00;;;11.75;;
11960;SDS011;6040;49.358;11.140;2024-01-30T08:12:43;15.07;;;12.50;;
11960;SDS011;6040;49.358;11.140;2024-01-30T08:15:11;15.88;;;12.35;;
11960;SDS011;6040;49.358;11.140;2024-01-30T08:17:38;18.75;;;13.10;;
11960;SDS011;6040;49.358;11.140;2024-01-30T08:20:05;29.52;;;20.95;;
11960;SDS011;6040;49.358;11.140;2024-01-30T08:22:37;20.90;;;15.65;;
11960;SDS011;6040;49.358;11.140;2024-01-30T08:25:05;23.92;;;15.70;;
11960;SDS011;6040;49.358;11.140;2024-01-30T08:27:32;16.15;;;13.15;;
11960;SDS011;6040;49.358;11.140;2024-01-30T08:30:00;16.30;;;13.18;;
11960;SDS011;6040;49.358;11.140;2024-01-30T08:32:27;17.17;;;13.00;;
11960;SDS011;6040;49.358;11.140;2024-01-30T08:34:54;16.30;;;13.52;;
11960;SDS011;6040;49.358;11.140;2024-01-30T08:37:21;32.50;;;29.00;;
11960;SDS011;6040;49.358;11.140;2024-01-30T08:39:49;18.50;;;14.88;;
11960;SDS011;6040;49.358;11.140;2024-01-30T08:42:16;17.23;;;13.68;;
11960;SDS011;6040;49.358;11.140;2024-01-30T08:44:43;19.42;;;14.07;;
11960;SDS011;6040;49.358;11.140;2024-01-30T08:47:10;17.75;;;13.68;;
11960;SDS011;6040;49.358;11.140;2024-01-30T08:49:37;15.38;;;12.77;;
11960;SDS011;6040;49.358;11.140;2024-01-30T08:52:04;17.10;;;13.25;;
11960;SDS011;6040;49.358;11.140;2024-01-30T08:54:32;16.00;;;12.70;;
11960;SDS011;6040;49.358;11.140;2024-01-30T08:57:01;17.93;;;14.13;;
11960;SDS011;6040;49.358;11.140;2024-01-30T08:59:29;15.48;;;13.52;;
11960;SDS011;6040;49.358;11.140;2024-01-30T09:01:55;18.92;;;14.50;;
11960;SDS011;6040;49.358;11.140;2024-01-30T09:04:24;16.95;;;13.65;;
11960;SDS011;6040;49.358;11.140;2024-01-30T09:06:51;15.43;;;13.07;;
11960;SDS011;6040;49.358;11.140;2024-01-30T09:09:18;20.10;;;14.30;;
11960;SDS011;6040;49.358;11.140;2024-01-30T09:11:45;18.38;;;13.77;;
11960;SDS011;6040;49.358;11.140;2024-01-30T09:14:13;18.77;;;14.48;;
11960;SDS011;6040;49.358;11.140;2024-01-30T09:16:40;19.42;;;14.52;;
11960;SDS011;6040;49.358;11.140;2024-01-30T09:19:07;17.70;;;14.10;;
11960;SDS011;6040;49.358;11.140;2024-01-30T09:21:34;19.20;;;15.23;;
11960;SDS011;6040;49.358;11.140;2024-01-30T09:24:01;19.98;;;14.68;;
11960;SDS011;6040;49.358;11.140;2024-01-30T09:26:29;19.75;;;15.07;;
11960;SDS011;6040;49.358;11.140;2024-01-30T09:28:56;19.30;;;13.90;;
11960;SDS011;6040;49.358;11.140;2024-01-30T09:31:24;19.08;;;14.15;;
11960;SDS011;6040;49.358;11.140;2024-01-30T09:33:51;18.15;;;13.95;;
11960;SDS011;6040;49.358;11.140;2024-01-30T09:36:19;20.08;;;15.05;;
11960;SDS011;6040;49.358;11.140;2024-01-30T09:38:46;16.73;;;13.68;;
11960;SDS011;6040;49.358;11.140;2024-01-30T09:41:12;18.05;;;13.65;;
11960;SDS011;6040;49.358;11.140;2024-01-30T09:43:40;19.13;;;13.85;;
11960;SDS011;6040;49.358;11.140;2024-01-30T09:46:12;20.35;;;14.30;;
11960;SDS011;6040;49.358;11.140;2024-01-30T09:48:44;16.88;;;13.32;;
11960;SDS011;6040;49.358;11.140;2024-01-30T09:51:13;15.50;;;12.77;;
11960;SDS011;6040;49.358;11.140;2024-01-30T09:53:42;16.30;;;12.15;;
11960;SDS011;6040;49.358;11.140;2024-01-30T09:56:09;14.88;;;11.93;;
11960;SDS011;6040;49.358;11.140;2024-01-30T09:58:38;16.00;;;12.32;;
11960;SDS011;6040;49.358;11.140;2024-01-30T10:01:05;17.17;;;11.45;;
11960;SDS011;6040;49.358;11.140;2024-01-30T10:03:32;15.50;;;11.68;;
11960;SDS011;6040;49.358;11.140;2024-01-30T10:06:00;13.32;;;10.90;;
11960;SDS011;6040;49.358;11.140;2024-01-30T10:08:27;13.65;;;11.02;;
11960;SDS011;6040;49.358;11.140;2024-01-30T10:10:54;14.10;;;10.87;;
11960;SDS011;6040;49.358;11.140;2024-01-30T10:13:21;13.18;;;10.80;;
11960;SDS011;6040;49.358;11.140;2024-01-30T10:15:48;12.82;;;10.90;;
11960;SDS011;6040;49.358;11.140;2024-01-30T10:18:16;13.25;;;10.63;;
11960;SDS011;6040;49.358;11.140;2024-01-30T10:20:43;13.38;;;10.60;;
11960;SDS011;6040;49.358;11.140;2024-01-30T10:23:11;12.82;;;10.40;;
11960;SDS011;6040;49.358;11.140;2024-01-30T10:25:38;14.10;;;10.35;;
11960;SDS011;6040;49.358;11.140;2024-01-30T10:28:05;12.90;;;10.80;;
11960;SDS011;6040;49.358;11.140;2024-01-30T10:30:32;15.32;;;11.20;;
11960;SDS011;6040;49.358;11.140;2024-01-30T10:32:58;14.82;;;10.40;;
11960;SDS011;6040;49.358;11.140;2024-01-30T10:35:25;13.38;;;10.07;;
11960;SDS011;6040;49.358;11.140;2024-01-30T10:37:52;13.15;;;10.65;;
11960;SDS011;6040;49.358;11.140;2024-01-30T10:40:24;12.70;;;10.40;;
11960;SDS011;6040;49.358;11.140;2024-01-30T10:42:54;14.40;;;10.88;;
11960;SDS011;6040;49.358;11.140;2024-01-30T10:45:22;11.53;;;10.33;;
11960;SDS011;6040;49.358;11.140;2024-01-30T10:47:49;12.90;;;10.52;;
11960;SDS011;6040;49.358;11.140;2024-01-30T10:50:16;14.45;;;11.10;;
11960;SDS011;6040;49.358;11.140;2024-01-30T10:52:43;14.52;;;10.85;;
11960;SDS011;6040;49.358;11.140;2024-01-30T10:55:11;15.77;;;10.68;;
11960;SDS011;6040;49.358;11.140;2024-01-30T10:57:41;12.65;;;10.30;;
11960;SDS011;6040;49.358;11.140;2024-01-30T11:00:08;11.90;;;10.07;;
11960;SDS011;6040;49.358;11.140;2024-01-30T11:02:37;14.00;;;10.02;;
11960;SDS011;6040;49.358;11.140;2024-01-30T11:05:05;12.90;;;9.85;;
11960;SDS011;6040;49.358;11.140;2024-01-30T11:07:33;13.30;;;10.32;;
11960;SDS011;6040;49.358;11.140;2024-01-30T11:10:00;13.35;;;10.30;;
11960;SDS011;6040;49.358;11.140;2024-01-30T11:12:29;13.95;;;10.32;;
11960;SDS011;6040;49.358;11.140;2024-01-30T11:15:02;13.85;;;10.95;;
11960;SDS011;6040;49.358;11.140;2024-01-30T11:17:39;13.88;;;10.55;;
11960;SDS011;6040;49.358;11.140;2024-01-30T11:20:09;13.87;;;10.17;;
11960;SDS011;6040;49.358;11.140;2024-01-30T11:22:38;13.90;;;10.17;;
11960;SDS011;6040;49.358;11.140;2024-01-30T11:25:10;14.23;;;10.47;;
11960;SDS011;6040;49.358;11.140;2024-01-30T11:27:37;13.15;;;10.20;;
11960;SDS011;6040;49.358;11.140;2024-01-30T11:30:07;14.98;;;10.80;;
11960;SDS011;6040;49.358;11.140;2024-01-30T11:32:34;13.97;;;10.37;;
11960;SDS011;6040;49.358;11.140;2024-01-30T11:35:03;14.30;;;10.43;;
11960;SDS011;6040;49.358;11.140;2024-01-30T11:37:31;13.13;;;10.32;;
11960;SDS011;6040;49.358;11.140;2024-01-30T11:40:02;14.27;;;10.25;;
11960;SDS011;6040;49.358;11.140;2024-01-30T11:42:31;13.48;;;10.45;;
11960;SDS011;6040;49.358;11.140;2024-01-30T11:44:59;14.13;;;10.95;;
11960;SDS011;6040;49.358;11.140;2024-01-30T11:47:28;16.60;;;11.95;;
11960;SDS011;6040;49.358;11.140;2024-01-30T11:49:55;34.40;;;20.75;;
11960;SDS011;6040;49.358;11.140;2024-01-30T11:52:23;17.10;;;12.00;;
11960;SDS011;6040;49.358;11.140;2024-01-30T11:54:50;14.23;;;10.90;;
11960;SDS011;6040;49.358;11.140;2024-01-30T11:57:17;14.18;;;11.02;;
11960;SDS011;6040;49.358;11.140;2024-01-30T11:59:43;14.63;;;10.93;;
11960;SDS011;6040;49.358;11.140;2024-01-30T12:02:15;14.17;;;11.30;;
11960;SDS011;6040;49.358;11.140;2024-01-30T12:04:43;12.63;;;10.70;;
11960;SDS011;6040;49.358;11.140;2024-01-30T12:07:10;13.43;;;10.88;;
11960;SDS011;6040;49.358;11.140;2024-01-30T12:09:37;15.02;;;11.27;;
11960;SDS011;6040;49.358;11.140;2024-01-30T12:12:04;15.65;;;11.63;;
11960;SDS011;6040;49.358;11.140;2024-01-30T12:14:37;14.55;;;11.30;;
11960;SDS011;6040;49.358;11.140;2024-01-30T12:17:04;14.05;;;11.55;;
11960;SDS011;6040;49.358;11.140;2024-01-30T12:19:32;14.55;;;11.90;;
11960;SDS011;6040;49.358;11.140;2024-01-30T12:22:01;14.95;;;11.68;;
11960;SDS011;6040;49.358;11.140;2024-01-30T12:24:28;15.20;;;11.65;;
11960;SDS011;6040;49.358;11.140;2024-01-30T12:26:56;13.98;;;11.45;;
11960;SDS011;6040;49.358;11.140;2024-01-30T12:29:24;16.63;;;11.65;;
11960;SDS011;6040;49.358;11.140;2024-01-30T12:31:52;16.13;;;11.65;;
11960;SDS011;6040;49.358;11.140;2024-01-30T12:34:19;15.23;;;12.23;;
11960;SDS011;6040;49.358;11.140;2024-01-30T12:36:46;14.20;;;12.07;;
11960;SDS011;6040;49.358;11.140;2024-01-30T12:39:15;14.32;;;11.35;;
11960;SDS011;6040;49.358;11.140;2024-01-30T12:41:42;15.82;;;11.55;;
11960;SDS011;6040;49.358;11.140;2024-01-30T12:44:09;15.88;;;11.93;;
11960;SDS011;6040;49.358;11.140;2024-01-30T12:46:36;15.35;;;11.40;;
11960;SDS011;6040;49.358;11.140;2024-01-30T12:49:03;16.02;;;11.50;;
11960;SDS011;6040;49.358;11.140;2024-01-30T12:51:30;14.70;;;11.45;;
11960;SDS011;6040;49.358;11.140;2024-01-30T12:53:56;17.67;;;11.70;;
11960;SDS011;6040;49.358;11.140;2024-01-30T12:56:25;13.65;;;10.98;;
11960;SDS011;6040;49.358;11.140;2024-01-30T12:58:51;15.00;;;10.98;;
11960;SDS011;6040;49.358;11.140;2024-01-30T13:01:18;14.68;;;9.95;;
11960;SDS011;6040;49.358;11.140;2024-01-30T13:03:45;14.13;;;10.25;;
11960;SDS011;6040;49.358;11.140;2024-01-30T13:06:12;13.65;;;10.13;;
11960;SDS011;6040;49.358;11.140;2024-01-30T13:08:39;12.70;;;10.02;;
11960;SDS011;6040;49.358;11.140;2024-01-30T13:11:06;12.90;;;9.95;;
11960;SDS011;6040;49.358;11.140;2024-01-30T13:13:34;12.82;;;9.88;;
11960;SDS011;6040;49.358;11.140;2024-01-30T13:16:01;12.40;;;10.00;;
11960;SDS011;6040;49.358;11.140;2024-01-30T13:18:29;13.63;;;10.15;;
11960;SDS011;6040;49.358;11.140;2024-01-30T13:20:56;13.63;;;9.73;;
11960;SDS011;6040;49.358;11.140;2024-01-30T13:23:22;12.95;;;9.75;;
11960;SDS011;6040;49.358;11.140;2024-01-30T13:25:49;11.77;;;9.60;;
11960;SDS011;6040;49.358;11.140;2024-01-30T13:28:16;13.88;;;9.45;;
11960;SDS011;6040;49.358;11.140;2024-01-30T13:30:44;13.43;;;9.47;;
11960;SDS011;6040;49.358;11.140;2024-01-30T13:33:11;12.95;;;9.40;;
11960;SDS011;6040;49.358;11.140;2024-01-30T13:35:38;11.57;;;9.52;;
11960;SDS011;6040;49.358;11.140;2024-01-30T13:38:05;13.80;;;9.77;;
11960;SDS011;6040;49.358;11.140;2024-01-30T13:40:32;13.13;;;10.02;;
11960;SDS011;6040;49.358;11.140;2024-01-30T13:42:58;11.77;;;9.60;;
11960;SDS011;6040;49.358;11.140;2024-01-30T13:45:25;11.87;;;9.67;;
11960;SDS011;6040;49.358;11.140;2024-01-30T13:47:53;12.90;;;9.68;;
11960;SDS011;6040;49.358;11.140;2024-01-30T13:50:20;13.52;;;9.98;;
11960;SDS011;6040;49.358;11.140;2024-01-30T13:52:47;13.27;;;10.20;;
11960;SDS011;6040;49.358;11.140;2024-01-30T13:55:14;13.80;;;10.45;;
11960;SDS011;6040;49.358;11.140;2024-01-30T13:57:41;12.27;;;10.13;;
11960;SDS011;6040;49.358;11.140;2024-01-30T14:00:08;13.15;;;9.60;;
11960;SDS011;6040;49.358;11.140;2024-01-30T14:02:36;11.52;;;9.60;;
11960;SDS011;6040;49.358;11.140;2024-01-30T14:05:05;13.15;;;9.75;;
11960;SDS011;6040;49.358;11.140;2024-01-30T14:07:32;13.30;;;9.93;;
11960;SDS011;6040;49.358;11.140;2024-01-30T14:09:59;12.82;;;10.10;;
11960;SDS011;6040;49.358;11.140;2024-01-30T14:12:25;12.15;;;9.80;;
11960;SDS011;6040;49.358;11.140;2024-01-30T14:14:53;12.82;;;10.05;;
11960;SDS011;6040;49.358;11.140;2024-01-30T14:17:20;12.80;;;9.43;;
11960;SDS011;6040;49.358;11.140;2024-01-30T14:19:47;14.13;;;10.30;;
11960;SDS011;6040;49.358;11.140;2024-01-30T14:22:15;12.88;;;9.82;;
11960;SDS011;6040;49.358;11.140;2024-01-30T14:24:42;13.02;;;9.45;;
11960;SDS011;6040;49.358;11.140;2024-01-30T14:27:08;12.65;;;10.10;;
11960;SDS011;6040;49.358;11.140;2024-01-30T14:29:36;13.02;;;10.20;;
11960;SDS011;6040;49.358;11.140;2024-01-30T14:32:03;13.98;;;10.45;;
11960;SDS011;6040;49.358;11.140;2024-01-30T14:34:30;12.77;;;9.95;;